Homestead, MT (59242)

12:14 AM MDT on September 22, 2014 (GMT -0600)
Sloulin International | Change Station
CLOSE
Current Station
Airport
Location: Williston,
Elevation: 1906 ft
Nearby Weather Stations

Elev 1906 ft 48.17 °N, 103.64 °W | Updated 22 minutes ago

Clear
Clear
48 °F
Feels Like 48 °F
N
0
Wind Variable Wind from North

Today
High -- | Low -- °F
--% Chance of Precip.
Yesterday
High -- | Low -- °F
Precip. -- in
6:45 AM 6:56 PM
Waning Crescent, 4% visible
Pressure 30.14 in
Visibility 10.0 miles
Clouds Clear
Dew Point 39 °F
Humidity 71%
Rainfall 0.00 in
Snow Depth Not available.
UV 0 out of 12
Pollen 3.80 out of 12
Air Quality Not available.
Flu Activity Not available.
METAR KISN 220552Z AUTO 00000KT 10SM CLR 09/04 A3013 RMK AO2 SLP207 T00890039 10217 20061 402280028 58011 $

More Conditions Fewer Conditions

Pressure 30.14 in
Visibility 10.0 miles
Clouds Clear
Dew Point 39 °F
Humidity 71%
Rainfall 0.00 in
Snow Depth Not available.
UV 0 out of 12
Pollen 3.80 out of 12
Air Quality Not available.
Flu Activity Not available.
METAR KISN 220552Z AUTO 00000KT 10SM CLR 09/04 A3013 RMK AO2 SLP207 T00890039 10217 20061 402280028 58011 $

More Conditions Fewer Conditions

10-Day Weather Forecast

Almanac

Astronomy

Sep. 22, 2014 Rise Set
Actual Time 6:45 AM MDT 6:56 PM MDT
Civil Twilight 6:13 AM MDT 7:27 PM MDT
Nautical Twilight 5:36 AM MDT 8:04 PM MDT
Astronomical Twilight 4:58 AM MDT 8:41 PM MDT
Moon 5:11 AM MDT 6:07 PM MDT
Length of Visible Light 13h 13m
Length of Day
12h 11m
Tomorrow will be 3m 32s shorter.
Waning Crescent, 4% of the Moon is Illuminated
Today
Waning Crescent
Sep 24
New
Oct 1
First Quarter
Oct 8
Full
Oct 15
Last Quarter

Today's Extremes

State Highs State Lows

Community

WunderPhotos

Upload Photos

1,755,392 photos uploaded!

Nearby

Snow Depth

Station Depth Elevation
Lone Mountain 0 in 8880 ft
Stringer Creek 0 in 6550 ft
Short Creek 0 in 7000 ft
Clover Meadow 0 in 8800 ft
Fisher Creek 1 in 9100 ft

Earthquake Activity

City Distance Mag. Time & Date
No recent earthquake activity has been reported nearby.
Minimum magnitude displayed is 2.5.

Coastal Water Temperatures

Place Temperature
No Stations Reporting

Nearby Weather Stations